»·PEaware :: N380SP KPSP-L71

N380SP :: KPSP-L71

FLIGHT INFORMATION

Flight Status: Arrived
Operator: Privately registered:
United States
More flights under this callsign
Pilot: Jack H. (13927)
Aircraft: BEECH AIRCRAFT BONANZA
(BE36)
More flights by this aircraft type
Origin: KPSP Palm Springs Intl
United States
Destination: L71 California City Mun
United States
More flights between these airports :: More routes between these airports
Route: KPSP-L71
File this flight plan on PilotEdge
Remarks:
Altitude:
(Current/Filed)
9,000ft
Speed:
(Current/Filed)
175kts
Departed: 13-Jan-17 04:58 PM
Arrived: 13-Jan-17 05:53 PM
Distance/Time
Traveled:
109nm/0:55
Distance/Time
To Go:
Arrived

Flight Plot

Page will automatically refresh every two minutes.

Flight plan parsing failed; only flown route is shown


Map Options




Map Legend


Flown Route
Filed Route
Departure Airport
Arrival Airport
Navaid (VOR, NDB)
Fix

Horizontal Profiles

Position Reports

Time Latitude Longitude Heading Altitude Ground
Speed
13-Jan-17 16:43 33.824179 -116.499050 54 481ft 0kts
13-Jan-17 16:44 33.824179 -116.499050 54 481ft 0kts
13-Jan-17 16:45 33.824179 -116.499050 54 481ft 0kts
13-Jan-17 16:46 33.824179 -116.499050 54 481ft 0kts
13-Jan-17 16:47 33.824179 -116.499050 54 481ft 0kts
13-Jan-17 16:48 33.824179 -116.499050 54 481ft 0kts
13-Jan-17 16:49 33.824179 -116.499050 54 481ft 0kts
13-Jan-17 16:50 33.824179 -116.499050 54 481ft 0kts
13-Jan-17 16:51 33.824179 -116.499050 54 481ft 0kts
13-Jan-17 16:52 33.824200 -116.499025 25 480ft 0kts
13-Jan-17 16:53 33.824261 -116.499041 334 481ft 0kts
13-Jan-17 16:54 33.824609 -116.499637 243 481ft 0kts
13-Jan-17 16:55 33.824609 -116.499637 243 481ft 0kts
13-Jan-17 16:56 33.824600 -116.499657 237 481ft 0kts
13-Jan-17 16:57 33.824904 -116.500570 321 481ft 27kts
13-Jan-17 16:58 33.841102 -116.513334 328 1452ft 69kts
13-Jan-17 16:59 33.860762 -116.521795 350 2575ft 66kts
13-Jan-17 17:00 33.880765 -116.532368 316 3559ft 79kts
13-Jan-17 17:01 33.883849 -116.558943 268 4578ft 80kts
13-Jan-17 17:02 33.887370 -116.587598 273 5501ft 90kts
13-Jan-17 17:03 33.888836 -116.617836 270 6457ft 91kts
13-Jan-17 17:04 33.889025 -116.639411 267 7156ft 83kts
13-Jan-17 17:05 33.895686 -116.667703 292 7852ft 98kts
13-Jan-17 17:06 33.904485 -116.695655 291 8745ft 84kts
13-Jan-17 17:07 33.915860 -116.722238 306 9407ft 92kts
13-Jan-17 17:08 33.937246 -116.743586 6 9865ft 120kts
13-Jan-17 17:09 33.960718 -116.738150 11 10005ft 145kts
13-Jan-17 17:10 33.968752 -116.736129 11 10007ft 152kts
13-Jan-17 17:11 34.013045 -116.725032 11 10002ft 171kts
13-Jan-17 17:12 34.060070 -116.713224 11 10000ft 174kts
13-Jan-17 17:13 34.107548 -116.701295 11 10000ft 175kts
13-Jan-17 17:14 34.155209 -116.689308 11 9999ft 175kts
13-Jan-17 17:15 34.202811 -116.677323 11 9999ft 175kts
13-Jan-17 17:16 34.250402 -116.665315 12 9999ft 175kts
13-Jan-17 17:17 34.297940 -116.653310 11 9999ft 175kts
13-Jan-17 17:18 34.324522 -116.693216 285 10000ft 174kts
13-Jan-17 17:19 34.335900 -116.727613 306 9999ft 175kts
13-Jan-17 17:20 34.365725 -116.772728 336 10002ft 174kts
13-Jan-17 17:21 34.396393 -116.816994 300 9998ft 174kts
13-Jan-17 17:22 34.420549 -116.868021 298 9996ft 175kts
13-Jan-17 17:23 34.446432 -116.916750 303 10022ft 175kts
13-Jan-17 17:24 34.473609 -116.964961 310 10017ft 169kts
13-Jan-17 17:25 34.509850 -117.005509 316 8916ft 153kts
13-Jan-17 17:26 34.519708 -117.036866 268 9317ft 130kts
13-Jan-17 17:27 34.503958 -117.068634 201 10038ft 129kts
13-Jan-17 17:28 34.463730 -117.078661 199 10053ft 162kts
13-Jan-17 17:29 34.431924 -117.101520 291 10181ft 164kts
13-Jan-17 17:30 34.475662 -117.096659 11 10075ft 173kts
13-Jan-17 17:31 34.505183 -117.090949 8 10026ft 173kts
13-Jan-17 17:32 34.552631 -117.092036 354 9991ft 173kts
13-Jan-17 17:33 34.573638 -117.094340 353 9989ft 172kts
13-Jan-17 17:34 34.612637 -117.116281 314 9999ft 169kts
13-Jan-17 17:35 34.645224 -117.153379 314 10151ft 166kts
13-Jan-17 17:36 34.680298 -117.193159 314 10039ft 169kts
13-Jan-17 17:37 34.715130 -117.233177 319 9943ft 168kts
13-Jan-17 17:38 34.746788 -117.273063 303 10186ft 163kts
13-Jan-17 17:39 34.765415 -117.318197 295 10564ft 151kts
13-Jan-17 17:40 34.778971 -117.369956 295 10615ft 163kts
13-Jan-17 17:41 34.782636 -117.379132 289 10546ft 169kts
13-Jan-17 17:42 34.818726 -117.461548 305 9077ft 186kts
13-Jan-17 17:43 34.847631 -117.511339 308 8177ft 206kts
13-Jan-17 17:44 34.878687 -117.556482 326 8477ft 167kts
13-Jan-17 17:45 34.922048 -117.594675 329 6214ft 236kts
13-Jan-17 17:46 34.966870 -117.630611 324 6231ft 189kts
13-Jan-17 17:47 34.999839 -117.670775 295 5487ft 195kts
13-Jan-17 17:48 35.021067 -117.724587 290 5815ft 158kts
13-Jan-17 17:49 35.035286 -117.777483 287 5142ft 190kts
13-Jan-17 17:50 34.992998 -117.853774 253 2305ft 2kts
13-Jan-17 17:51 35.160815 -117.971104 254 2855ft 103kts
13-Jan-17 17:52 35.154986 -117.998967 258 2557ft 76kts
13-Jan-17 17:53 35.151153 -118.016383 186 2439ft 0kts
13-Jan-17 17:54 35.149934 -118.015708 101 2439ft 0kts
13-Jan-17 17:55 35.149927 -118.015647 94 2439ft 0kts

Navigation Log

Ident Type
Flight plan parsing failed, navigation log unavailable